createdAt,value
2019-04-06T00:00:37.405Z,85.90
2019-04-06T00:03:08.125Z,85.60
2019-04-06T00:05:38.713Z,85.80
2019-04-06T00:08:09.164Z,85.80
2019-04-06T00:10:39.643Z,85.70
2019-04-06T00:13:10.170Z,85.60
2019-04-06T00:15:40.682Z,85.70
2019-04-06T00:18:11.149Z,85.90
2019-04-06T00:20:42.805Z,86.00
2019-04-06T00:23:13.265Z,85.90
2019-04-06T00:25:45.002Z,86.40
2019-04-06T00:28:15.742Z,86.20
2019-04-06T00:31:11.481Z,86.70
2019-04-06T00:33:42.867Z,86.70
2019-04-06T00:36:13.308Z,86.70
2019-04-06T00:38:43.790Z,86.60
2019-04-06T00:41:14.572Z,86.80
2019-04-06T00:43:45.335Z,87.10
2019-04-06T00:46:16.190Z,87.30
2019-04-06T00:48:47.053Z,87.00
2019-04-06T00:51:17.556Z,87.00
2019-04-06T00:53:48.065Z,86.20
2019-04-06T00:56:18.680Z,86.80
2019-04-06T00:58:49.298Z,86.70
2019-04-06T01:01:19.861Z,86.60
2019-04-06T01:03:50.765Z,86.70
2019-04-06T01:06:21.209Z,86.90
2019-04-06T01:08:51.660Z,86.90
2019-04-06T01:11:22.108Z,86.70
2019-04-06T01:13:52.600Z,86.90
2019-04-06T01:16:23.169Z,86.50
2019-04-06T01:18:54.150Z,86.20
2019-04-06T01:21:24.657Z,86.00
2019-04-06T01:23:55.113Z,86.00
2019-04-06T01:26:25.627Z,86.40
2019-04-06T01:28:56.547Z,86.50
2019-04-06T01:31:27.093Z,86.80
2019-04-06T01:33:59.130Z,87.60
2019-04-06T01:36:29.915Z,86.90
2019-04-06T01:39:00.461Z,86.70
2019-04-06T01:41:30.987Z,86.90
2019-04-06T01:44:01.549Z,86.80
2019-04-06T01:46:32.039Z,86.40
2019-04-06T01:49:02.532Z,86.60
2019-04-06T01:51:33.029Z,86.70
2019-04-06T01:54:03.551Z,86.80
2019-04-06T01:56:34.069Z,87.00
2019-04-06T01:59:04.776Z,87.40
2019-04-06T02:01:42.343Z,87.60
2019-04-06T02:04:13.265Z,87.90
2019-04-06T02:06:43.753Z,88.20
2019-04-06T02:09:14.429Z,88.00
2019-04-06T02:11:44.928Z,88.20
2019-04-06T02:14:15.522Z,87.90
2019-04-06T02:16:45.989Z,87.70
2019-04-06T02:19:16.811Z,87.90
2019-04-06T02:21:47.303Z,87.60
2019-04-06T02:24:17.788Z,87.30
2019-04-06T02:26:48.429Z,87.60
2019-04-06T02:29:19.068Z,87.90
2019-04-06T02:32:18.023Z,87.60
2019-04-06T02:34:55.435Z,87.60
2019-04-06T02:37:45.406Z,87.10
2019-04-06T02:40:34.871Z,87.10
2019-04-06T02:43:11.638Z,87.30
2019-04-06T02:45:42.103Z,87.30
2019-04-06T02:48:12.619Z,87.00
2019-04-06T02:50:43.371Z,86.80
2019-04-06T02:53:14.185Z,86.80
2019-04-06T02:55:44.958Z,86.80
2019-04-06T02:58:15.470Z,86.70
2019-04-06T03:00:45.925Z,87.00
2019-04-06T03:03:16.480Z,87.10
2019-04-06T03:05:46.946Z,87.30
2019-04-06T03:08:17.430Z,86.80
2019-04-06T03:10:48.207Z,86.50
2019-04-06T03:13:18.819Z,87.00
2019-04-06T03:15:49.313Z,87.50
2019-04-06T03:18:20.166Z,87.60
2019-04-06T03:20:50.838Z,87.50
2019-04-06T03:23:24.441Z,87.70
2019-04-06T03:25:54.022Z,87.40
2019-04-06T03:28:24.923Z,87.40
2019-04-06T03:30:55.567Z,87.30
2019-04-06T03:33:26.612Z,87.40
2019-04-06T03:35:57.815Z,87.10
2019-04-06T03:38:29.554Z,87.20
2019-04-06T03:41:00.024Z,86.80
2019-04-06T03:43:30.530Z,86.70
2019-04-06T03:46:00.990Z,87.80
2019-04-06T03:48:31.484Z,88.30
2019-04-06T03:51:02.306Z,87.80
2019-04-06T03:53:32.788Z,87.80
2019-04-06T03:56:03.411Z,87.90
2019-04-06T03:58:34.038Z,87.60
2019-04-06T04:01:04.512Z,87.40
2019-04-06T04:03:35.036Z,87.30
2019-04-06T04:06:05.493Z,87.30
2019-04-06T04:08:36.015Z,87.60
2019-04-06T04:11:06.457Z,87.70
2019-04-06T04:13:36.933Z,87.50
2019-04-06T04:16:07.453Z,87.40
2019-04-06T04:18:37.978Z,87.40
2019-04-06T04:21:08.517Z,87.50
2019-04-06T04:23:39.041Z,88.20
2019-04-06T04:26:09.592Z,87.30
2019-04-06T04:28:40.810Z,87.40
2019-04-06T04:31:11.265Z,87.70
2019-04-06T04:33:41.748Z,87.70
2019-04-06T04:36:12.247Z,88.20
2019-04-06T04:38:43.181Z,88.70
2019-04-06T04:41:14.278Z,88.80
2019-04-06T04:43:45.331Z,88.90
2019-04-06T04:46:15.822Z,88.50
2019-04-06T04:48:46.325Z,89.40
2019-04-06T04:51:17.101Z,88.60
2019-04-06T04:53:47.664Z,88.50
2019-04-06T04:56:18.182Z,88.60
2019-04-06T04:58:48.888Z,88.90
2019-04-06T05:01:19.700Z,88.80
2019-04-06T05:03:50.174Z,88.60
2019-04-06T05:06:20.649Z,88.50
2019-04-06T05:08:51.554Z,88.20
2019-04-06T05:11:22.085Z,88.20
2019-04-06T05:14:29.392Z,88.10
2019-04-06T05:16:59.846Z,88.00
2019-04-06T05:19:30.316Z,87.80
2019-04-06T05:22:01.145Z,87.90
2019-04-06T05:24:31.688Z,87.80
2019-04-06T05:27:02.173Z,87.70
2019-04-06T05:29:33.293Z,87.60
2019-04-06T05:32:04.249Z,87.60
2019-04-06T05:34:34.735Z,87.40
2019-04-06T05:37:05.306Z,87.40
2019-04-06T05:39:36.168Z,87.40
2019-04-06T05:42:06.724Z,87.30
2019-04-06T05:44:37.180Z,87.40
2019-04-06T05:47:07.759Z,87.10
2019-04-06T05:49:38.545Z,86.70
2019-04-06T05:52:09.500Z,86.20
2019-04-06T05:54:41.009Z,86.10
2019-04-06T05:57:11.637Z,85.90
2019-04-06T05:59:42.087Z,86.10
2019-04-06T06:02:12.611Z,86.10
2019-04-06T06:04:43.522Z,86.50
2019-04-06T06:07:14.092Z,86.30
2019-04-06T06:09:44.992Z,86.60
2019-04-06T06:12:16.127Z,85.80
2019-04-06T06:14:47.668Z,85.60
2019-04-06T06:17:18.129Z,85.50
2019-04-06T06:19:48.595Z,85.40
2019-04-06T06:22:19.145Z,85.50
2019-04-06T06:24:49.665Z,85.50
2019-04-06T06:27:22.545Z,86.10
2019-04-06T06:29:52.617Z,85.50
2019-04-06T06:32:23.074Z,85.90
2019-04-06T06:34:53.656Z,86.10
2019-04-06T06:37:24.244Z,86.00
2019-04-06T06:39:54.754Z,85.90
2019-04-06T06:42:25.232Z,86.30
2019-04-06T06:44:55.720Z,86.20
2019-04-06T06:47:26.218Z,85.70
2019-04-06T06:49:56.680Z,85.00
2019-04-06T06:52:27.173Z,85.00
2019-04-06T06:54:57.930Z,85.40
2019-04-06T06:57:28.381Z,85.50
2019-04-06T06:59:59.012Z,84.40
2019-04-06T07:02:30.069Z,84.40
2019-04-06T07:05:00.770Z,84.70
2019-04-06T07:07:31.236Z,85.30
2019-04-06T07:10:05.826Z,85.50
2019-04-06T07:12:33.964Z,85.90
2019-04-06T07:15:05.119Z,86.30
2019-04-06T07:17:35.600Z,86.10
2019-04-06T07:20:07.196Z,86.50
2019-04-06T07:22:37.653Z,86.80
2019-04-06T07:25:08.950Z,86.90
2019-04-06T07:27:39.772Z,86.70
2019-04-06T07:30:10.496Z,86.30
2019-04-06T07:32:40.991Z,86.30
2019-04-06T07:35:12.340Z,85.90
2019-04-06T07:37:42.806Z,85.50
2019-04-06T07:40:14.734Z,85.40
2019-04-06T07:42:45.165Z,85.00
2019-04-06T07:45:16.672Z,84.50
2019-04-06T07:47:47.133Z,84.10
2019-04-06T07:50:18.033Z,84.10
2019-04-06T07:52:48.563Z,84.30
2019-04-06T07:55:18.993Z,84.10
2019-04-06T07:57:49.653Z,84.50
2019-04-06T08:00:20.616Z,84.50
2019-04-06T08:02:51.457Z,84.20
2019-04-06T08:05:21.947Z,84.60
2019-04-06T08:07:52.389Z,83.80
2019-04-06T08:10:22.881Z,83.40
2019-04-06T08:12:54.584Z,82.80
2019-04-06T08:15:25.057Z,82.30
2019-04-06T08:17:55.565Z,82.50
2019-04-06T08:20:26.147Z,81.60
2019-04-06T08:22:57.648Z,80.70
2019-04-06T08:25:28.402Z,80.50
2019-04-06T08:27:59.136Z,80.10
2019-04-06T08:30:30.024Z,80.40
2019-04-06T08:33:00.507Z,80.00
2019-04-06T08:35:30.989Z,79.80
2019-04-06T08:38:01.541Z,79.80
2019-04-06T08:40:32.076Z,79.50
2019-04-06T08:43:02.554Z,80.00
2019-04-06T08:45:33.013Z,79.80
2019-04-06T08:48:03.456Z,80.00
2019-04-06T08:50:33.905Z,78.90
2019-04-06T08:53:05.449Z,79.00
2019-04-06T08:55:36.025Z,79.00
2019-04-06T08:58:06.643Z,78.40
2019-04-06T09:00:37.283Z,78.00
2019-04-06T09:03:07.804Z,77.80
2019-04-06T09:05:38.262Z,77.50
2019-04-06T09:08:08.755Z,77.20
2019-04-06T09:10:39.438Z,76.80
2019-04-06T09:13:09.997Z,77.10
2019-04-06T09:15:40.513Z,77.10
2019-04-06T09:18:12.059Z,76.20
2019-04-06T09:20:42.940Z,76.20
2019-04-06T09:23:13.388Z,76.50
2019-04-06T09:25:43.844Z,76.20
2019-04-06T09:28:14.362Z,76.10
2019-04-06T09:30:45.119Z,75.60
2019-04-06T09:33:15.734Z,75.10
2019-04-06T09:35:46.213Z,75.20
2019-04-06T09:38:20.337Z,74.80
2019-04-06T09:40:51.215Z,75.00
2019-04-06T09:43:21.723Z,74.50
2019-04-06T09:46:09.831Z,74.10
2019-04-06T09:49:14.399Z,73.80
2019-04-06T09:52:19.084Z,73.60
2019-04-06T09:55:07.679Z,73.10
2019-04-06T09:57:56.125Z,72.70
2019-04-06T10:00:45.656Z,73.80
2019-04-06T10:03:42.518Z,72.00
2019-04-06T10:06:34.955Z,72.40
2019-04-06T10:09:42.033Z,71.50
2019-04-06T10:12:23.968Z,71.40
2019-04-06T10:15:15.810Z,70.80
2019-04-06T10:18:05.357Z,70.40
2019-04-06T10:20:46.925Z,69.80
2019-04-06T10:23:29.779Z,69.20
2019-04-06T10:26:11.680Z,68.50
2019-04-06T10:29:03.040Z,67.20
2019-04-06T10:31:42.198Z,66.80
2019-04-06T10:34:34.849Z,64.40
2019-04-06T10:37:22.969Z,63.40
2019-04-06T10:40:00.918Z,62.70
2019-04-06T10:42:54.889Z,61.50
2019-04-06T10:45:44.957Z,59.80
2019-04-06T10:48:21.553Z,59.10
2019-04-06T10:51:11.118Z,57.90
2019-04-06T10:54:00.650Z,56.70
2019-04-06T10:56:39.793Z,55.70
2019-04-06T10:59:35.355Z,55.00
2019-04-06T11:02:23.528Z,53.30
2019-04-06T11:05:09.229Z,53.00
2019-04-06T11:07:57.614Z,51.30
2019-04-06T11:11:02.163Z,51.30
2019-04-06T11:13:49.384Z,50.90
2019-04-06T11:16:29.394Z,51.10
2019-04-06T11:19:37.039Z,51.30
2019-04-06T11:22:22.260Z,51.10
2019-04-06T11:25:14.810Z,51.50
2019-04-06T11:28:04.452Z,51.10
2019-04-06T11:30:56.983Z,51.90
2019-04-06T11:33:45.472Z,52.30
2019-04-06T11:36:44.362Z,52.10
2019-04-06T11:39:31.862Z,51.70
2019-04-06T11:42:15.087Z,51.80
2019-04-06T11:44:52.195Z,52.30
2019-04-06T11:47:57.208Z,52.60
2019-04-06T11:50:49.767Z,53.00
2019-04-06T11:53:33.438Z,53.00
2019-04-06T11:56:21.522Z,53.60
2019-04-06T11:59:11.357Z,53.30
2019-04-06T12:01:49.242Z,54.00
2019-04-06T12:04:38.689Z,55.80
2019-04-06T12:07:31.266Z,55.90
2019-04-06T12:10:08.210Z,56.10
2019-04-06T12:12:56.714Z,56.60
2019-04-06T12:15:38.067Z,56.40
2019-04-06T12:18:40.260Z,57.50
2019-04-06T12:21:29.775Z,58.00
2019-04-06T12:24:25.357Z,58.20
2019-04-06T12:27:18.464Z,58.00
2019-04-06T12:30:08.073Z,58.00
2019-04-06T12:33:10.158Z,57.90
2019-04-06T12:35:58.856Z,58.40
2019-04-06T12:38:57.724Z,58.60
2019-04-06T12:41:43.692Z,58.30
2019-04-06T12:44:32.119Z,58.80
2019-04-06T12:47:09.748Z,58.20
2019-04-06T12:50:11.824Z,58.20
2019-04-06T12:53:04.108Z,58.20
2019-04-06T12:55:43.974Z,58.60
2019-04-06T12:58:43.111Z,59.00
2019-04-06T13:01:32.677Z,59.10
2019-04-06T13:04:40.600Z,59.70
2019-04-06T13:07:29.124Z,59.80
2019-04-06T13:10:10.161Z,59.20
2019-04-06T13:12:58.623Z,59.50
2019-04-06T13:15:37.581Z,59.70
2019-04-06T13:18:26.034Z,59.30
2019-04-06T13:21:21.668Z,59.70
2019-04-06T13:24:11.175Z,59.50
2019-04-06T13:27:07.455Z,60.40
2019-04-06T13:30:00.064Z,59.80
2019-04-06T13:32:48.633Z,60.00
2019-04-06T13:35:56.815Z,60.40
2019-04-06T13:38:46.563Z,61.10
2019-04-06T13:41:54.130Z,62.10
2019-04-06T13:44:31.718Z,61.70
2019-04-06T13:47:24.074Z,61.40
2019-04-06T13:50:29.928Z,61.40
2019-04-06T13:53:28.525Z,61.40
2019-04-06T13:56:22.082Z,60.80
2019-04-06T13:59:14.752Z,61.70
2019-04-06T14:01:51.080Z,62.10
2019-04-06T14:04:35.330Z,63.00
2019-04-06T14:07:19.586Z,64.30
2019-04-06T14:10:15.482Z,63.30
2019-04-06T14:13:09.565Z,63.10
2019-04-06T14:15:55.783Z,62.60
2019-04-06T14:18:44.392Z,62.30
2019-04-06T14:21:29.433Z,62.30
2019-04-06T14:24:17.809Z,62.70
2019-04-06T14:27:06.004Z,62.40
2019-04-06T14:30:01.528Z,62.40
2019-04-06T14:32:50.269Z,62.30
2019-04-06T14:35:39.464Z,62.00
2019-04-06T14:38:22.734Z,61.90
2019-04-06T14:41:11.302Z,63.10
2019-04-06T14:44:04.331Z,62.70
2019-04-06T14:46:50.998Z,62.50
2019-04-06T14:49:40.486Z,62.00
2019-04-06T14:52:49.551Z,61.50
2019-04-06T14:55:29.321Z,61.30
2019-04-06T14:58:21.887Z,61.90
2019-04-06T15:01:10.052Z,61.10
2019-04-06T15:03:51.921Z,61.10
2019-04-06T15:06:47.827Z,60.90
2019-04-06T15:09:37.337Z,60.70
2019-04-06T15:12:36.173Z,60.00
2019-04-06T15:15:31.842Z,59.70
2019-04-06T15:18:21.379Z,57.70
2019-04-06T15:21:09.924Z,56.80
2019-04-06T15:24:02.690Z,56.90
2019-04-06T15:26:52.009Z,56.60
2019-04-06T15:29:47.159Z,56.10
2019-04-06T15:32:35.632Z,55.20
2019-04-06T15:35:40.810Z,55.20
2019-04-06T15:38:17.113Z,53.90
2019-04-06T15:40:57.256Z,53.70
2019-04-06T15:43:59.192Z,52.30
2019-04-06T15:46:46.969Z,52.40
2019-04-06T15:49:42.698Z,52.20
2019-04-06T15:52:41.218Z,51.90
2019-04-06T15:55:34.390Z,51.60
2019-04-06T15:58:14.750Z,51.70
2019-04-06T16:01:03.851Z,52.50
2019-04-06T16:04:05.837Z,52.20
2019-04-06T16:07:14.075Z,52.50
2019-04-06T16:10:03.844Z,52.80
2019-04-06T16:12:56.306Z,53.30
2019-04-06T16:15:48.669Z,52.30
2019-04-06T16:18:37.118Z,52.50
2019-04-06T16:21:29.728Z,52.50
2019-04-06T16:24:13.736Z,52.20
2019-04-06T16:26:56.947Z,51.70
2019-04-06T16:29:58.537Z,52.00
2019-04-06T16:32:47.031Z,52.30
2019-04-06T16:35:44.532Z,52.20
2019-04-06T16:38:39.158Z,52.00
2019-04-06T16:41:44.375Z,51.90
2019-04-06T16:44:24.785Z,51.90
2019-04-06T16:47:14.655Z,52.20
2019-04-06T16:50:10.811Z,52.80
2019-04-06T16:53:00.322Z,52.90
2019-04-06T16:55:37.812Z,53.10
2019-04-06T16:58:26.219Z,53.50
2019-04-06T17:01:10.710Z,53.90
2019-04-06T17:03:54.446Z,54.50
2019-04-06T17:06:47.401Z,55.40
2019-04-06T17:09:43.428Z,55.60
2019-04-06T17:12:32.986Z,56.20
2019-04-06T17:15:12.898Z,56.60
2019-04-06T17:17:58.750Z,56.90
2019-04-06T17:20:49.347Z,57.70
2019-04-06T17:23:31.452Z,57.70
2019-04-06T17:26:10.463Z,57.90
2019-04-06T17:29:00.085Z,58.00
2019-04-06T17:31:52.662Z,58.60
2019-04-06T17:34:57.755Z,59.10
2019-04-06T17:37:33.380Z,59.40
2019-04-06T17:40:35.540Z,59.80
2019-04-06T17:43:21.834Z,60.00
2019-04-06T17:45:58.940Z,60.30
2019-04-06T17:48:48.449Z,60.60
2019-04-06T17:51:37.316Z,61.10
2019-04-06T17:54:26.833Z,61.80
2019-04-06T17:57:28.935Z,62.30
2019-04-06T18:00:17.268Z,62.70
2019-04-06T18:03:13.454Z,63.20
2019-04-06T18:06:21.196Z,63.90
2019-04-06T18:09:14.063Z,64.40
2019-04-06T18:12:02.114Z,64.90
2019-04-06T18:14:33.797Z,65.40
2019-04-06T18:17:05.000Z,66.10
2019-04-06T18:19:36.026Z,67.50
2019-04-06T18:22:06.632Z,67.40
2019-04-06T18:24:37.416Z,67.80
2019-04-06T18:27:08.202Z,67.90
2019-04-06T18:29:40.029Z,68.20
2019-04-06T18:32:29.361Z,68.40
2019-04-06T18:34:59.906Z,68.40
2019-04-06T18:37:49.452Z,68.70
2019-04-06T18:40:25.071Z,69.30
2019-04-06T18:42:56.287Z,70.00
2019-04-06T18:45:30.115Z,70.50
2019-04-06T18:48:00.961Z,71.20
2019-04-06T18:50:36.083Z,71.50
2019-04-06T18:53:04.772Z,71.50
2019-04-06T18:55:35.299Z,71.80
2019-04-06T18:58:11.238Z,71.90
2019-04-06T19:00:38.022Z,72.20
2019-04-06T19:03:13.900Z,72.40
2019-04-06T19:05:40.725Z,72.60
2019-04-06T19:08:11.236Z,72.90
2019-04-06T19:10:41.852Z,73.10
2019-04-06T19:13:12.368Z,73.70
2019-04-06T19:15:42.824Z,74.00
2019-04-06T19:18:13.464Z,74.20
2019-04-06T19:20:46.131Z,74.10
2019-04-06T19:23:18.505Z,75.00
2019-04-06T19:25:49.085Z,75.00
2019-04-06T19:28:19.908Z,75.10
2019-04-06T19:30:50.970Z,75.60
2019-04-06T19:33:25.182Z,75.60
2019-04-06T19:35:54.222Z,75.60
2019-04-06T19:38:25.563Z,75.80
2019-04-06T19:40:56.140Z,76.10
2019-04-06T19:43:26.834Z,76.50
2019-04-06T19:45:57.663Z,76.50
2019-04-06T19:48:28.522Z,76.70
2019-04-06T19:50:59.058Z,76.80
2019-04-06T19:53:30.056Z,77.00
2019-04-06T19:56:00.998Z,77.30
2019-04-06T19:58:32.591Z,77.60
2019-04-06T20:01:03.152Z,78.00
2019-04-06T20:03:37.112Z,78.00
2019-04-06T20:06:06.623Z,78.00
2019-04-06T20:08:37.251Z,77.90
2019-04-06T20:11:07.756Z,78.10
2019-04-06T20:13:38.247Z,78.40
2019-04-06T20:16:08.850Z,78.50
2019-04-06T20:18:40.037Z,78.70
2019-04-06T20:21:10.756Z,78.80
2019-04-06T20:23:41.345Z,78.80
2019-04-06T20:26:11.805Z,79.10
2019-04-06T20:28:42.272Z,79.20
2019-04-06T20:31:13.339Z,79.40
2019-04-06T20:33:50.981Z,79.70
2019-04-06T20:36:16.505Z,79.80
2019-04-06T20:38:47.175Z,80.20
2019-04-06T20:41:18.146Z,80.10
2019-04-06T20:43:48.773Z,80.00
2019-04-06T20:46:20.458Z,80.10
2019-04-06T20:48:51.253Z,80.20
2019-04-06T20:51:21.797Z,80.00
2019-04-06T20:53:52.319Z,80.00
2019-04-06T20:56:22.803Z,79.90
2019-04-06T20:58:53.381Z,80.10
2019-04-06T21:01:24.002Z,79.80
2019-04-06T21:04:00.831Z,80.50
2019-04-06T21:06:26.872Z,80.10
2019-04-06T21:08:57.634Z,80.90
2019-04-06T21:11:28.137Z,80.10
2019-04-06T21:14:00.156Z,80.10
2019-04-06T21:16:31.732Z,80.20
2019-04-06T21:19:02.608Z,80.40
2019-04-06T21:21:33.701Z,80.60
2019-04-06T21:24:04.694Z,80.70
2019-04-06T21:26:35.748Z,80.70
2019-04-06T21:29:06.388Z,80.90
2019-04-06T21:31:38.200Z,81.00
2019-04-06T21:34:11.899Z,81.20
2019-04-06T21:36:41.657Z,81.40
2019-04-06T21:39:12.225Z,81.70
2019-04-06T21:41:42.930Z,81.90
2019-04-06T21:44:13.665Z,82.00
2019-04-06T21:46:44.639Z,82.70
2019-04-06T21:49:15.238Z,82.80
2019-04-06T21:51:45.930Z,82.90
2019-04-06T21:54:17.507Z,83.10
2019-04-06T21:56:48.078Z,83.10
2019-04-06T21:59:18.576Z,83.20
2019-04-06T22:01:49.412Z,83.30
2019-04-06T22:04:26.077Z,83.70
2019-04-06T22:06:55.608Z,83.80
2019-04-06T22:09:27.131Z,83.70
2019-04-06T22:11:58.459Z,83.90
2019-04-06T22:14:29.299Z,84.30
2019-04-06T22:16:59.953Z,84.40
2019-04-06T22:19:30.480Z,84.20
2019-04-06T22:22:01.186Z,84.20
2019-04-06T22:24:31.727Z,84.20
2019-04-06T22:27:02.698Z,84.30
2019-04-06T22:29:34.290Z,84.40
2019-04-06T22:32:04.980Z,84.40
2019-04-06T22:34:39.889Z,84.50
2019-04-06T22:37:07.753Z,84.60
2019-04-06T22:39:38.262Z,84.60
2019-04-06T22:42:08.947Z,84.60
2019-04-06T22:44:40.028Z,85.00
2019-04-06T22:47:10.655Z,84.90
2019-04-06T22:49:41.541Z,85.20
2019-04-06T22:52:12.218Z,85.30
2019-04-06T22:54:43.531Z,85.60
2019-04-06T22:57:14.745Z,85.50
2019-04-06T22:59:45.874Z,85.90
2019-04-06T23:02:16.783Z,85.90
2019-04-06T23:05:01.088Z,85.90
2019-04-06T23:07:31.721Z,86.10
2019-04-06T23:10:02.894Z,86.30
2019-04-06T23:12:33.783Z,86.40
2019-04-06T23:15:06.125Z,86.40
2019-04-06T23:17:37.127Z,86.50
2019-04-06T23:20:08.324Z,86.40
2019-04-06T23:22:39.011Z,86.40
2019-04-06T23:25:09.505Z,86.60
2019-04-06T23:27:40.480Z,86.40
2019-04-06T23:30:11.262Z,86.50
2019-04-06T23:32:42.229Z,86.40
2019-04-06T23:35:13.116Z,86.40
2019-04-06T23:37:43.658Z,86.50
2019-04-06T23:40:14.554Z,86.60
2019-04-06T23:42:45.864Z,86.70
2019-04-06T23:45:16.554Z,86.90
2019-04-06T23:47:47.049Z,87.10
2019-04-06T23:50:17.854Z,87.30
2019-04-06T23:52:48.368Z,87.30
2019-04-06T23:55:19.192Z,87.50
2019-04-06T23:57:49.847Z,87.40
